Time;durP1;ratioP1;P1;durP2;ratioP2;P2;SDS_P1;SDS_P2;PMS_P1;PMS_P2;Temp;Humidity;BMP_temperature;BMP_pressure;BME280_temperature;BME280_humidity;BME280_pressure;Samples;Min_cycle;Max_cycle;Signal;HPM_P1;HPM_P2
2024/03/15 00:00:17;;;;;;;37.60;23.20;;;;;;;-128.00;-1.00;-1.00;107040;1251;1002216;-62
2024/03/15 00:02:48;;;;;;;43.30;23.10;;;;;;;-128.00;-1.00;-1.00;106664;1251;1012728;-65
2024/03/15 00:05:15;;;;;;;41.30;21.90;;;;;;;-128.00;-1.00;-1.00;106818;1251;1012986;-69
2024/03/15 00:07:41;;;;;;;39.00;22.60;;;;;;;-128.00;-1.00;-1.00;106990;1251;1002349;-64
2024/03/15 00:10:09;;;;;;;34.20;20.80;;;;;;;-128.00;-1.00;-1.00;106968;1251;1002326;-62
2024/03/15 00:12:36;;;;;;;41.50;20.90;;;;;;;-128.00;-1.00;-1.00;106960;1251;1001983;-64
2024/03/15 00:15:03;;;;;;;40.40;24.20;;;;;;;-128.00;-1.00;-1.00;106906;1251;1001815;-62
2024/03/15 00:17:30;;;;;;;40.30;23.70;;;;;;;-128.00;-1.00;-1.00;107001;1251;1002029;-67
2024/03/15 00:19:57;;;;;;;38.50;22.10;;;;;;;-128.00;-1.00;-1.00;106968;1251;1002331;-67
2024/03/15 00:22:24;;;;;;;34.50;21.00;;;;;;;-128.00;-1.00;-1.00;107009;1251;1002903;-64
2024/03/15 00:24:50;;;;;;;35.20;23.30;;;;;;;-128.00;-1.00;-1.00;107005;1250;1002238;-62
2024/03/15 00:27:18;;;;;;;33.10;22.00;;;;;;;-128.00;-1.00;-1.00;107048;1251;1001936;-63
2024/03/15 00:29:44;;;;;;;40.20;22.60;;;;;;;-128.00;-1.00;-1.00;106810;1251;1002491;-62
2024/03/15 00:32:11;;;;;;;39.00;21.80;;;;;;;-128.00;-1.00;-1.00;107132;1251;1002324;-68
2024/03/15 00:34:38;;;;;;;43.50;22.90;;;;;;;-128.00;-1.00;-1.00;107199;1251;1002202;-66
2024/03/15 00:37:05;;;;;;;38.60;21.60;;;;;;;-128.00;-1.00;-1.00;107032;1251;1002480;-65
2024/03/15 00:39:32;;;;;;;41.10;24.10;;;;;;;-128.00;-1.00;-1.00;107090;1251;1002709;-64
2024/03/15 00:41:59;;;;;;;43.50;25.50;;;;;;;-128.00;-1.00;-1.00;107203;1251;1002266;-62
2024/03/15 00:44:26;;;;;;;52.60;28.50;;;;;;;-128.00;-1.00;-1.00;107039;1251;1002631;-65
2024/03/15 00:46:53;;;;;;;47.90;26.70;;;;;;;-128.00;-1.00;-1.00;106949;1251;1002755;-64
2024/03/15 00:49:20;;;;;;;60.10;28.50;;;;;;;-128.00;-1.00;-1.00;107035;1250;1002096;-66
2024/03/15 00:51:47;;;;;;;43.40;26.20;;;;;;;-128.00;-1.00;-1.00;106976;1251;1002728;-62
2024/03/15 00:54:14;;;;;;;55.30;28.90;;;;;;;-128.00;-1.00;-1.00;107025;1251;1002115;-65
2024/03/15 00:56:41;;;;;;;59.10;28.80;;;;;;;-128.00;-1.00;-1.00;106902;1251;1002255;-65
2024/03/15 00:59:08;;;;;;;39.40;23.50;;;;;;;-128.00;-1.00;-1.00;106786;1251;1002405;-65
2024/03/15 01:01:37;;;;;;;39.90;22.80;;;;;;;-128.00;-1.00;-1.00;106986;1250;1002409;-65
2024/03/15 01:04:04;;;;;;;38.90;23.00;;;;;;;-128.00;-1.00;-1.00;106955;1251;1012674;-64
2024/03/15 01:06:31;;;;;;;53.90;24.90;;;;;;;-128.00;-1.00;-1.00;106833;1251;1002110;-65
2024/03/15 01:08:58;;;;;;;41.60;23.10;;;;;;;-128.00;-1.00;-1.00;106902;1251;1002218;-65
2024/03/15 01:11:25;;;;;;;38.80;21.40;;;;;;;-128.00;-1.00;-1.00;107005;1250;1002072;-65
2024/03/15 01:13:57;;;;;;;37.10;21.90;;;;;;;-128.00;-1.00;-1.00;106930;1253;1002907;-64
2024/03/15 01:16:26;;;;;;;43.90;24.30;;;;;;;-128.00;-1.00;-1.00;106932;1251;1012475;-65
2024/03/15 01:18:54;;;;;;;43.20;24.80;;;;;;;-128.00;-1.00;-1.00;106919;1250;1013102;-64
2024/03/15 01:21:26;;;;;;;47.10;26.70;;;;;;;-128.00;-1.00;-1.00;106912;1251;1002182;-65
2024/03/15 01:23:54;;;;;;;46.90;26.60;;;;;;;-128.00;-1.00;-1.00;106956;1250;1011709;-65
2024/03/15 01:26:21;;;;;;;49.50;25.50;;;;;;;-128.00;-1.00;-1.00;106905;1250;1012501;-64
2024/03/15 01:28:48;;;;;;;56.90;26.10;;;;;;;-128.00;-1.00;-1.00;106985;1251;1002497;-65
2024/03/15 01:31:15;;;;;;;41.70;24.20;;;;;;;-128.00;-1.00;-1.00;106805;1250;1002687;-65
2024/03/15 01:33:41;;;;;;;42.10;25.80;;;;;;;-128.00;-1.00;-1.00;106858;1250;1002222;-65
2024/03/15 01:36:08;;;;;;;49.90;27.70;;;;;;;-128.00;-1.00;-1.00;106992;1250;1002186;-72
2024/03/15 01:38:35;;;;;;;47.30;28.30;;;;;;;-128.00;-1.00;-1.00;106995;1250;1002627;-65
2024/03/15 01:41:02;;;;;;;66.70;29.30;;;;;;;-128.00;-1.00;-1.00;106880;1251;1002083;-64
2024/03/15 01:43:29;;;;;;;45.50;25.10;;;;;;;-128.00;-1.00;-1.00;106990;1250;1002454;-65
2024/03/15 01:45:56;;;;;;;48.40;28.30;;;;;;;-128.00;-1.00;-1.00;106809;1254;1002483;-65
2024/03/15 01:48:23;;;;;;;42.40;24.40;;;;;;;-128.00;-1.00;-1.00;106934;1250;1002433;-64
2024/03/15 01:50:50;;;;;;;43.40;25.00;;;;;;;-128.00;-1.00;-1.00;107023;1250;1002248;-64
2024/03/15 01:53:18;;;;;;;42.40;24.30;;;;;;;-128.00;-1.00;-1.00;106870;1250;1002450;-66
2024/03/15 01:55:45;;;;;;;;;;;;;;;-128.00;-1.00;-1.00;106938;1251;1012930;-66
2024/03/15 01:58:12;;;;;;;45.30;26.10;;;;;;;-128.00;-1.00;-1.00;106726;1255;1002672;-66
2024/03/15 02:00:41;;;;;;;46.00;25.60;;;;;;;-128.00;-1.00;-1.00;106963;1250;1002358;-66
2024/03/15 02:03:08;;;;;;;45.30;26.30;;;;;;;-128.00;-1.00;-1.00;106990;1251;1013521;-64
2024/03/15 02:05:35;;;;;;;45.60;25.70;;;;;;;-128.00;-1.00;-1.00;106967;1252;1002746;-65
2024/03/15 02:08:04;;;;;;;48.90;26.70;;;;;;;-128.00;-1.00;-1.00;107005;1250;1002884;-64
2024/03/15 02:10:31;;;;;;;;;;;;;;;-128.00;-1.00;-1.00;106941;1251;1010319;-66
2024/03/15 02:12:58;;;;;;;38.40;22.70;;;;;;;-128.00;-1.00;-1.00;106984;1250;1002325;-67
2024/03/15 02:15:24;;;;;;;40.30;23.70;;;;;;;-128.00;-1.00;-1.00;106772;1250;1002506;-65
2024/03/15 02:17:54;;;;;;;45.10;22.00;;;;;;;-128.00;-1.00;-1.00;106937;1250;1003026;-68
2024/03/15 02:20:21;;;;;;;34.90;20.60;;;;;;;-128.00;-1.00;-1.00;107000;1250;1012474;-66
2024/03/15 02:22:48;;;;;;;38.30;22.20;;;;;;;-128.00;-1.00;-1.00;106955;1251;1002130;-65
2024/03/15 02:25:16;;;;;;;34.60;21.60;;;;;;;-128.00;-1.00;-1.00;106985;1251;1002942;-65
2024/03/15 02:27:43;;;;;;;33.00;22.40;;;;;;;-128.00;-1.00;-1.00;106825;1251;1002803;-66
2024/03/15 02:30:11;;;;;;;38.70;22.10;;;;;;;-128.00;-1.00;-1.00;106983;1250;1002294;-66
2024/03/15 02:32:38;;;;;;;45.00;24.00;;;;;;;-128.00;-1.00;-1.00;106972;1251;1012477;-65
2024/03/15 02:35:07;;;;;;;49.50;24.20;;;;;;;-128.00;-1.00;-1.00;106973;1251;1002482;-64
2024/03/15 02:37:52;;;;;;;47.00;26.10;;;;;;;-128.00;-1.00;-1.00;106994;1250;1010384;-67
2024/03/15 02:40:18;;;;;;;46.70;26.20;;;;;;;-128.00;-1.00;-1.00;106968;1251;1013908;-65
2024/03/15 02:42:46;;;;;;;48.70;27.30;;;;;;;-128.00;-1.00;-1.00;106982;1250;1002438;-64
2024/03/15 02:45:12;;;;;;;49.30;26.20;;;;;;;-128.00;-1.00;-1.00;106961;1250;1002711;-64
2024/03/15 02:47:39;;;;;;;52.30;30.20;;;;;;;-128.00;-1.00;-1.00;107000;1250;1002683;-65
2024/03/15 02:50:06;;;;;;;51.90;27.10;;;;;;;-128.00;-1.00;-1.00;106966;1250;1002064;-63
2024/03/15 02:52:33;;;;;;;51.30;27.60;;;;;;;-128.00;-1.00;-1.00;106979;1251;1002039;-65
2024/03/15 02:55:00;;;;;;;51.40;27.60;;;;;;;-128.00;-1.00;-1.00;106998;1252;1002118;-66
2024/03/15 02:57:31;;;;;;;38.60;22.70;;;;;;;-128.00;-1.00;-1.00;106997;1250;1002323;-65
2024/03/15 02:59:57;;;;;;;38.70;22.30;;;;;;;-128.00;-1.00;-1.00;106922;1251;1009469;-65
2024/03/15 03:02:24;;;;;;;38.90;22.50;;;;;;;-128.00;-1.00;-1.00;106970;1250;1002106;-64
2024/03/15 03:04:51;;;;;;;31.00;20.10;;;;;;;-128.00;-1.00;-1.00;107029;1250;1002788;-67
2024/03/15 03:07:18;;;;;;;36.80;21.10;;;;;;;-128.00;-1.00;-1.00;107022;1251;1003021;-65
2024/03/15 03:09:46;;;;;;;34.90;20.20;;;;;;;-128.00;-1.00;-1.00;107039;1250;1002509;-65
2024/03/15 03:12:14;;;;;;;43.40;25.40;;;;;;;-128.00;-1.00;-1.00;106686;1255;1003180;-65
2024/03/15 03:14:41;;;;;;;41.30;25.60;;;;;;;-128.00;-1.00;-1.00;106566;1250;1002610;-65
2024/03/15 03:17:07;;;;;;;52.40;29.40;;;;;;;-128.00;-1.00;-1.00;106765;1252;1002343;-65
2024/03/15 03:19:34;;;;;;;65.80;35.70;;;;;;;-128.00;-1.00;-1.00;106962;1251;1002462;-64
2024/03/15 03:22:01;;;;;;;64.40;33.70;;;;;;;-128.00;-1.00;-1.00;106993;1251;1002524;-64
2024/03/15 03:24:28;;;;;;;72.10;34.30;;;;;;;-128.00;-1.00;-1.00;106657;1250;1002541;-64
2024/03/15 03:26:55;;;;;;;54.80;29.00;;;;;;;-128.00;-1.00;-1.00;106975;1251;1002394;-64
2024/03/15 03:29:22;;;;;;;50.90;29.10;;;;;;;-128.00;-1.00;-1.00;106979;1251;1002717;-66
2024/03/15 03:31:49;;;;;;;48.10;28.70;;;;;;;-128.00;-1.00;-1.00;107001;1251;1002294;-65
2024/03/15 03:34:16;;;;;;;49.10;27.00;;;;;;;-128.00;-1.00;-1.00;107006;1250;1001701;-65
2024/03/15 03:36:43;;;;;;;51.10;25.50;;;;;;;-128.00;-1.00;-1.00;106959;1251;1002956;-65
2024/03/15 03:39:10;;;;;;;44.20;25.00;;;;;;;-128.00;-1.00;-1.00;106994;1251;1002337;-64
2024/03/15 03:41:37;;;;;;;55.40;25.10;;;;;;;-128.00;-1.00;-1.00;106607;1256;1002893;-62
2024/03/15 03:44:04;;;;;;;54.60;28.40;;;;;;;-128.00;-1.00;-1.00;107037;1250;1002327;-67
2024/03/15 03:46:31;;;;;;;50.90;25.40;;;;;;;-128.00;-1.00;-1.00;106949;1251;1002202;-68
2024/03/15 03:48:58;;;;;;;40.10;22.60;;;;;;;-128.00;-1.00;-1.00;106671;1252;1002287;-65
2024/03/15 03:51:25;;;;;;;44.10;25.70;;;;;;;-128.00;-1.00;-1.00;106964;1250;1001731;-65
2024/03/15 03:53:52;;;;;;;44.10;23.90;;;;;;;-128.00;-1.00;-1.00;106959;1251;1001891;-65
2024/03/15 03:56:18;;;;;;;37.30;23.90;;;;;;;-128.00;-1.00;-1.00;106720;1252;1002558;-65
2024/03/15 03:58:46;;;;;;;51.10;25.50;;;;;;;-128.00;-1.00;-1.00;106902;1252;1002464;-65
2024/03/15 04:01:14;;;;;;;51.80;28.90;;;;;;;-128.00;-1.00;-1.00;107053;1251;1002485;-66
2024/03/15 04:03:48;;;;;;;49.50;28.20;;;;;;;-128.00;-1.00;-1.00;106991;1251;1010249;-65
2024/03/15 04:06:15;;;;;;;39.80;24.20;;;;;;;-128.00;-1.00;-1.00;106978;1251;1013143;-65
2024/03/15 04:08:42;;;;;;;42.40;24.30;;;;;;;-128.00;-1.00;-1.00;107001;1252;1002821;-65
2024/03/15 04:11:09;;;;;;;40.20;23.40;;;;;;;-128.00;-1.00;-1.00;106971;1250;1002192;-64
2024/03/15 04:13:36;;;;;;;33.00;20.20;;;;;;;-128.00;-1.00;-1.00;106693;1252;1002007;-67
2024/03/15 04:16:04;;;;;;;43.70;22.40;;;;;;;-128.00;-1.00;-1.00;106976;1251;1002657;-65
2024/03/15 04:18:32;;;;;;;33.10;18.90;;;;;;;-128.00;-1.00;-1.00;106835;1251;1013694;-65
2024/03/15 04:20:59;;;;;;;35.90;20.30;;;;;;;-128.00;-1.00;-1.00;107034;1251;1012258;-64
2024/03/15 04:23:26;;;;;;;29.70;21.20;;;;;;;-128.00;-1.00;-1.00;106970;1251;1001821;-65
2024/03/15 04:25:54;;;;;;;33.90;20.20;;;;;;;-128.00;-1.00;-1.00;106982;1250;1002050;-65
2024/03/15 04:28:21;;;;;;;35.60;20.00;;;;;;;-128.00;-1.00;-1.00;106993;1251;1002491;-66
2024/03/15 04:30:48;;;;;;;38.50;21.30;;;;;;;-128.00;-1.00;-1.00;107026;1250;1002381;-64
2024/03/15 04:33:15;;;;;;;37.60;21.90;;;;;;;-128.00;-1.00;-1.00;107007;1252;1002382;-66
2024/03/15 04:35:42;;;;;;;46.80;25.30;;;;;;;-128.00;-1.00;-1.00;106904;1251;1002456;-64
2024/03/15 04:38:09;;;;;;;48.30;24.80;;;;;;;-128.00;-1.00;-1.00;106973;1250;1002113;-65
2024/03/15 04:40:35;;;;;;;58.20;27.80;;;;;;;-128.00;-1.00;-1.00;106966;1251;1002176;-65
2024/03/15 04:43:02;;;;;;;58.30;27.80;;;;;;;-128.00;-1.00;-1.00;106997;1250;1002418;-65
2024/03/15 04:45:30;;;;;;;48.20;27.60;;;;;;;-128.00;-1.00;-1.00;107031;1251;1002929;-64
2024/03/15 04:47:57;;;;;;;50.70;27.60;;;;;;;-128.00;-1.00;-1.00;107024;1251;1002304;-66
2024/03/15 04:50:24;;;;;;;47.50;25.60;;;;;;;-128.00;-1.00;-1.00;107010;1251;1002467;-66
2024/03/15 04:52:52;;;;;;;41.10;24.60;;;;;;;-128.00;-1.00;-1.00;107032;1251;1002870;-66
2024/03/15 04:55:21;;;;;;;39.10;22.90;;;;;;;-128.00;-1.00;-1.00;106935;1251;1002454;-65
2024/03/15 04:57:49;;;;;;;36.80;22.40;;;;;;;-128.00;-1.00;-1.00;106874;1252;1011911;-64
2024/03/15 05:00:19;;;;;;;39.30;22.50;;;;;;;-128.00;-1.00;-1.00;106937;1251;1002232;-66
2024/03/15 05:02:48;;;;;;;39.80;22.80;;;;;;;-128.00;-1.00;-1.00;106984;1251;1010759;-67
2024/03/15 05:05:15;;;;;;;35.60;21.80;;;;;;;-128.00;-1.00;-1.00;106975;1250;1002035;-66
2024/03/15 05:07:42;;;;;;;50.00;24.40;;;;;;;-128.00;-1.00;-1.00;107003;1251;1002308;-65
2024/03/15 05:10:14;;;;;;;49.10;21.90;;;;;;;-128.00;-1.00;-1.00;106983;1250;1002473;-65
2024/03/15 05:12:41;;;;;;;42.30;23.70;;;;;;;-128.00;-1.00;-1.00;106966;1251;1013631;-67
2024/03/15 05:15:10;;;;;;;48.60;28.10;;;;;;;-128.00;-1.00;-1.00;106913;1251;1001908;-65
2024/03/15 05:17:38;;;;;;;57.00;31.10;;;;;;;-128.00;-1.00;-1.00;107032;1251;1011106;-66
2024/03/15 05:20:08;;;;;;;46.10;29.80;;;;;;;-128.00;-1.00;-1.00;107035;1251;1002923;-67
2024/03/15 05:22:35;;;;;;;58.40;27.10;;;;;;;-128.00;-1.00;-1.00;106906;1251;1012394;-65
2024/03/15 05:25:04;;;;;;;90.80;50.20;;;;;;;-128.00;-1.00;-1.00;106971;1251;1002820;-66
2024/03/15 05:27:32;;;;;;;;;;;;;;;-128.00;-1.00;-1.00;106993;1251;1010488;-65
2024/03/15 05:30:00;;;;;;;62.40;32.70;;;;;;;-128.00;-1.00;-1.00;106929;1251;1010514;-66
2024/03/15 05:32:28;;;;;;;44.00;25.10;;;;;;;-128.00;-1.00;-1.00;106990;1251;1002446;-65
2024/03/15 05:34:55;;;;;;;61.20;36.70;;;;;;;-128.00;-1.00;-1.00;106931;1251;1012981;-66
2024/03/15 05:37:21;;;;;;;40.90;26.10;;;;;;;-128.00;-1.00;-1.00;107008;1250;1002460;-66
2024/03/15 05:39:48;;;;;;;31.40;21.50;;;;;;;-128.00;-1.00;-1.00;107013;1251;1002113;-65
2024/03/15 05:42:15;;;;;;;49.00;27.00;;;;;;;-128.00;-1.00;-1.00;107045;1251;1001958;-67
2024/03/15 05:44:45;;;;;;;64.70;34.80;;;;;;;-128.00;-1.00;-1.00;107013;1253;1002353;-65
2024/03/15 05:47:14;;;;;;;46.90;27.80;;;;;;;-128.00;-1.00;-1.00;106961;1250;1012392;-64
2024/03/15 05:49:41;;;;;;;43.70;26.50;;;;;;;-128.00;-1.00;-1.00;106891;1252;1012536;-65
2024/03/15 05:52:10;;;;;;;52.70;27.10;;;;;;;-128.00;-1.00;-1.00;106682;1253;1002742;-65
2024/03/15 05:54:37;;;;;;;43.10;25.40;;;;;;;-128.00;-1.00;-1.00;106921;1251;1011368;-65
2024/03/15 05:57:07;;;;;;;51.00;25.40;;;;;;;-128.00;-1.00;-1.00;106891;1251;1002299;-69
2024/03/15 05:59:33;;;;;;;44.10;26.30;;;;;;;-128.00;-1.00;-1.00;107001;1251;1012776;-66
2024/03/15 06:02:00;;;;;;;55.90;28.30;;;;;;;-128.00;-1.00;-1.00;106999;1250;1002390;-66
2024/03/15 06:04:27;;;;;;;48.50;25.90;;;;;;;-128.00;-1.00;-1.00;107013;1250;1002845;-67
2024/03/15 06:06:55;;;;;;;50.60;25.90;;;;;;;-128.00;-1.00;-1.00;106893;1251;1002082;-66
2024/03/15 06:09:22;;;;;;;54.10;31.40;;;;;;;-128.00;-1.00;-1.00;106965;1251;1002184;-64
2024/03/15 06:11:49;;;;;;;44.60;25.90;;;;;;;-128.00;-1.00;-1.00;106701;1258;1002279;-64
2024/03/15 06:14:17;;;;;;;51.10;29.70;;;;;;;-128.00;-1.00;-1.00;107003;1251;1003195;-64
2024/03/15 06:16:45;;;;;;;;;;;;;;;-128.00;-1.00;-1.00;106990;1251;1010325;-62
2024/03/15 06:19:12;;;;;;;40.20;25.30;;;;;;;-128.00;-1.00;-1.00;106977;1251;1002143;-64
2024/03/15 06:21:39;;;;;;;37.40;22.10;;;;;;;-128.00;-1.00;-1.00;107057;1250;1001970;-62
2024/03/15 06:24:06;;;;;;;36.60;22.20;;;;;;;-128.00;-1.00;-1.00;107019;1251;1002424;-65
2024/03/15 06:26:33;;;;;;;43.20;23.40;;;;;;;-128.00;-1.00;-1.00;107037;1250;1002417;-67
2024/03/15 06:29:00;;;;;;;56.40;28.70;;;;;;;-128.00;-1.00;-1.00;106972;1251;1002467;-66
2024/03/15 06:31:27;;;;;;;47.50;26.90;;;;;;;-128.00;-1.00;-1.00;106554;1253;1002645;-68
2024/03/15 06:33:56;;;;;;;69.40;31.60;;;;;;;-128.00;-1.00;-1.00;107023;1251;1002382;-66
2024/03/15 06:36:29;;;;;;;59.00;30.30;;;;;;;-128.00;-1.00;-1.00;107023;1253;1013100;-67
2024/03/15 06:39:08;;;;;;;41.60;24.50;;;;;;;-128.00;-1.00;-1.00;107045;1251;1013702;-65
2024/03/15 06:41:40;;;;;;;46.70;26.10;;;;;;;-128.00;-1.00;-1.00;107016;1251;1010308;-65
2024/03/15 06:49:33;;;;;;;40.50;23.80;;;;;;;-128.00;-1.00;-1.00;106920;1255;1012133;-67
2024/03/15 06:54:45;;;;;;;33.60;20.70;;;;;;;-128.00;-1.00;-1.00;106962;1251;1010777;-67
2024/03/15 06:57:12;;;;;;;33.90;20.40;;;;;;;-128.00;-1.00;-1.00;106986;1250;1002061;-68
2024/03/15 06:59:39;;;;;;;44.40;21.30;;;;;;;-128.00;-1.00;-1.00;106813;1250;1002388;-68
2024/03/15 07:02:08;;;;;;;41.60;21.30;;;;;;;-128.00;-1.00;-1.00;106998;1251;1012229;-67
2024/03/15 07:04:35;;;;;;;42.70;24.10;;;;;;;-128.00;-1.00;-1.00;106986;1250;1002316;-68
2024/03/15 07:07:02;;;;;;;33.90;19.90;;;;;;;-128.00;-1.00;-1.00;106962;1250;1002259;-67
2024/03/15 07:09:29;;;;;;;37.90;21.80;;;;;;;-128.00;-1.00;-1.00;106734;1250;1002402;-65
2024/03/15 07:11:58;;;;;;;42.50;25.70;;;;;;;-128.00;-1.00;-1.00;107018;1250;1002604;-67
2024/03/15 07:14:24;;;;;;;;;;;;;;;-128.00;-1.00;-1.00;106480;1259;1013153;-68
2024/03/15 07:16:51;;;;;;;34.90;18.50;;;;;;;-128.00;-1.00;-1.00;107001;1250;1003109;-65
2024/03/15 07:19:21;;;;;;;33.10;19.10;;;;;;;-128.00;-1.00;-1.00;107043;1251;1002266;-67
2024/03/15 07:21:48;;;;;;;42.10;24.60;;;;;;;-128.00;-1.00;-1.00;106971;1250;1011105;-65
2024/03/15 07:24:14;;;;;;;38.50;19.70;;;;;;;-128.00;-1.00;-1.00;106683;1251;1002674;-65
2024/03/15 07:26:41;;;;;;;29.20;17.70;;;;;;;-128.00;-1.00;-1.00;106989;1250;1001984;-67
2024/03/15 07:29:09;;;;;;;45.00;24.10;;;;;;;-128.00;-1.00;-1.00;106993;1250;1002345;-68
2024/03/15 07:31:36;;;;;;;46.90;24.80;;;;;;;-128.00;-1.00;-1.00;107000;1250;1002140;-66
2024/03/15 07:34:04;;;;;;;33.30;19.40;;;;;;;-128.00;-1.00;-1.00;106966;1250;1001955;-67
2024/03/15 07:36:32;;;;;;;33.60;17.40;;;;;;;-128.00;-1.00;-1.00;106813;1250;1012849;-69
2024/03/15 07:38:59;;;;;;;30.60;16.50;;;;;;;-128.00;-1.00;-1.00;106936;1250;1012710;-67
2024/03/15 07:41:31;;;;;;;32.90;17.70;;;;;;;-128.00;-1.00;-1.00;107015;1250;1002494;-69
2024/03/15 07:43:58;;;;;;;41.90;22.80;;;;;;;-128.00;-1.00;-1.00;106979;1250;1011109;-68
2024/03/15 07:46:25;;;;;;;31.70;19.60;;;;;;;-128.00;-1.00;-1.00;106943;1253;1002958;-68
2024/03/15 07:48:52;;;;;;;31.30;19.40;;;;;;;-128.00;-1.00;-1.00;106832;1252;1002557;-68
2024/03/15 07:51:19;;;;;;;32.30;20.30;;;;;;;-128.00;-1.00;-1.00;107024;1251;1002470;-66
2024/03/15 07:53:46;;;;;;;29.40;16.00;;;;;;;-128.00;-1.00;-1.00;107049;1250;1002054;-69
2024/03/15 07:56:13;;;;;;;48.30;24.60;;;;;;;-128.00;-1.00;-1.00;106997;1252;1002424;-69
2024/03/15 07:58:41;;;;;;;30.50;20.20;;;;;;;-128.00;-1.00;-1.00;106631;1253;1002341;-68
2024/03/15 08:01:08;;;;;;;30.80;18.10;;;;;;;-128.00;-1.00;-1.00;107023;1251;1002096;-68
2024/03/15 08:03:35;;;;;;;31.10;19.80;;;;;;;-128.00;-1.00;-1.00;106982;1250;1002173;-68
2024/03/15 08:06:05;;;;;;;33.30;19.70;;;;;;;-128.00;-1.00;-1.00;106983;1251;1002641;-68
2024/03/15 08:08:32;;;;;;;27.70;16.40;;;;;;;-128.00;-1.00;-1.00;106634;1252;1010018;-68
2024/03/15 08:11:00;;;;;;;29.90;19.10;;;;;;;-128.00;-1.00;-1.00;106787;1251;1002652;-68
2024/03/15 08:13:30;;;;;;;21.80;16.40;;;;;;;-128.00;-1.00;-1.00;107000;1253;1012472;-68
2024/03/15 08:16:18;;;;;;;22.40;15.80;;;;;;;-128.00;-1.00;-1.00;106973;1253;1002080;-68
2024/03/15 08:18:48;;;;;;;27.80;14.30;;;;;;;-128.00;-1.00;-1.00;106907;1251;1012736;-69
2024/03/15 08:21:15;;;;;;;21.80;14.00;;;;;;;-128.00;-1.00;-1.00;106855;1251;1009967;-68
2024/03/15 08:23:44;;;;;;;21.60;14.50;;;;;;;-128.00;-1.00;-1.00;106935;1251;1002809;-68
2024/03/15 08:26:12;;;;;;;;;;;;;;;-128.00;-1.00;-1.00;107027;1253;1013412;-69
2024/03/15 08:28:40;;;;;;;20.50;13.70;;;;;;;-128.00;-1.00;-1.00;107044;1251;1002898;-68
2024/03/15 08:31:07;;;;;;;24.30;14.00;;;;;;;-128.00;-1.00;-1.00;106935;1251;1013146;-68
2024/03/15 08:33:34;;;;;;;21.80;13.90;;;;;;;-128.00;-1.00;-1.00;106947;1251;1003118;-68
2024/03/15 08:36:02;;;;;;;23.90;15.90;;;;;;;-128.00;-1.00;-1.00;106982;1254;1003080;-68
2024/03/15 08:38:30;;;;;;;26.00;16.40;;;;;;;-128.00;-1.00;-1.00;106982;1253;1002951;-68
2024/03/15 08:40:56;;;;;;;22.90;13.90;;;;;;;-128.00;-1.00;-1.00;107023;1251;1002204;-69
2024/03/15 08:43:23;;;;;;;24.50;15.50;;;;;;;-128.00;-1.00;-1.00;107010;1253;1002348;-68
2024/03/15 08:45:50;;;;;;;22.90;16.40;;;;;;;-128.00;-1.00;-1.00;106966;1251;1002292;-66
2024/03/15 08:48:17;;;;;;;35.80;20.70;;;;;;;-128.00;-1.00;-1.00;107038;1250;1002070;-68
2024/03/15 08:50:46;;;;;;;26.00;16.40;;;;;;;-128.00;-1.00;-1.00;107048;1251;1002712;-65
2024/03/15 08:53:13;;;;;;;31.70;16.00;;;;;;;-128.00;-1.00;-1.00;106969;1252;1012098;-66
2024/03/15 08:55:42;;;;;;;21.60;14.60;;;;;;;-128.00;-1.00;-1.00;106968;1251;1002304;-69
2024/03/15 08:58:09;;;;;;;34.60;16.70;;;;;;;-128.00;-1.00;-1.00;106859;1251;1010087;-68
2024/03/15 09:00:38;;;;;;;45.50;18.40;;;;;;;-128.00;-1.00;-1.00;106962;1251;1002415;-68
2024/03/15 09:03:09;;;;;;;26.70;17.00;;;;;;;-128.00;-1.00;-1.00;107015;1251;1012377;-68
2024/03/15 09:05:38;;;;;;;26.30;17.00;;;;;;;-128.00;-1.00;-1.00;107000;1255;1013056;-68
2024/03/15 09:08:06;;;;;;;28.30;17.90;;;;;;;-128.00;-1.00;-1.00;106914;1251;1002004;-66
2024/03/15 09:10:33;;;;;;;26.20;16.70;;;;;;;-128.00;-1.00;-1.00;106928;1250;1010123;-68
2024/03/15 09:13:02;;;;;;;27.50;17.00;;;;;;;-128.00;-1.00;-1.00;106974;1250;1010158;-68
2024/03/15 09:15:29;;;;;;;24.90;15.40;;;;;;;-128.00;-1.00;-1.00;106512;1251;1002146;-68
2024/03/15 09:17:59;;;;;;;26.20;16.70;;;;;;;-128.00;-1.00;-1.00;106957;1252;1002298;-68
2024/03/15 09:20:37;;;;;;;25.70;17.20;;;;;;;-128.00;-1.00;-1.00;106946;1252;1012477;-68
2024/03/15 09:23:04;;;;;;;;;;;;;;;-128.00;-1.00;-1.00;107080;1250;1010567;-68
2024/03/15 09:25:32;;;;;;;23.10;15.50;;;;;;;-128.00;-1.00;-1.00;107024;1251;1001986;-68
2024/03/15 09:28:00;;;;;;;40.30;22.80;;;;;;;-128.00;-1.00;-1.00;107004;1250;1002614;-68
2024/03/15 09:30:29;;;;;;;30.10;18.20;;;;;;;-128.00;-1.00;-1.00;106990;1251;1002146;-68
2024/03/15 09:32:58;;;;;;;29.60;19.90;;;;;;;-128.00;-1.00;-1.00;106974;1253;1013546;-66
2024/03/15 09:35:26;;;;;;;28.70;15.80;;;;;;;-128.00;-1.00;-1.00;106997;1250;1010369;-68
2024/03/15 09:37:53;;;;;;;25.90;17.00;;;;;;;-128.00;-1.00;-1.00;107027;1250;1002335;-68
2024/03/15 09:40:28;;;;;;;25.00;16.00;;;;;;;-128.00;-1.00;-1.00;107033;1250;1002123;-68
2024/03/15 09:42:55;;;;;;;22.70;14.30;;;;;;;-128.00;-1.00;-1.00;106990;1254;1012651;-70
2024/03/15 09:45:22;;;;;;;25.10;13.90;;;;;;;-128.00;-1.00;-1.00;106966;1250;1002318;-69
2024/03/15 09:47:50;;;;;;;32.70;18.70;;;;;;;-128.00;-1.00;-1.00;106987;1250;1002078;-69
2024/03/15 09:50:17;;;;;;;26.40;15.90;;;;;;;-128.00;-1.00;-1.00;106962;1250;1001816;-68
2024/03/15 09:52:45;;;;;;;27.60;18.10;;;;;;;-128.00;-1.00;-1.00;106995;1250;1002216;-71
2024/03/15 09:55:16;;;;;;;50.10;28.00;;;;;;;-128.00;-1.00;-1.00;106954;1250;1002625;-67
2024/03/15 09:57:43;;;;;;;47.60;24.40;;;;;;;-128.00;-1.00;-1.00;106768;1251;1012020;-69
2024/03/15 10:00:16;;;;;;;61.60;36.50;;;;;;;-128.00;-1.00;-1.00;106953;1254;1002293;-67
2024/03/15 10:02:44;;;;;;;71.50;36.60;;;;;;;-128.00;-1.00;-1.00;106973;1250;1011130;-67
2024/03/15 10:05:12;;;;;;;77.40;37.10;;;;;;;-128.00;-1.00;-1.00;106965;1251;1012925;-67
2024/03/15 10:07:39;;;;;;;40.10;20.10;;;;;;;-128.00;-1.00;-1.00;107042;1250;1002391;-68
2024/03/15 10:10:10;;;;;;;31.20;17.40;;;;;;;-128.00;-1.00;-1.00;106796;1253;1002785;-68
2024/03/15 10:12:46;;;;;;;41.90;25.10;;;;;;;-128.00;-1.00;-1.00;106921;1250;1009763;-69
2024/03/15 10:15:17;;;;;;;26.50;17.50;;;;;;;-128.00;-1.00;-1.00;106958;1250;1011033;-69
2024/03/15 10:18:03;;;;;;;33.40;20.70;;;;;;;-128.00;-1.00;-1.00;107020;1251;1013622;-69
2024/03/15 10:20:33;;;;;;;50.50;23.70;;;;;;;-128.00;-1.00;-1.00;106936;1253;1012836;-69
2024/03/15 10:23:00;;;;;;;27.90;16.20;;;;;;;-128.00;-1.00;-1.00;106988;1250;1012901;-67
2024/03/15 10:25:31;;;;;;;28.50;15.60;;;;;;;-128.00;-1.00;-1.00;106997;1250;1002316;-67
2024/03/15 10:27:57;;;;;;;40.70;21.30;;;;;;;-128.00;-1.00;-1.00;106992;1250;1010854;-68
2024/03/15 10:30:25;;;;;;;33.60;17.00;;;;;;;-128.00;-1.00;-1.00;106985;1254;1002356;-68
2024/03/15 10:32:53;;;;;;;38.90;20.00;;;;;;;-128.00;-1.00;-1.00;106948;1255;1002421;-67
2024/03/15 10:35:21;;;;;;;39.80;20.50;;;;;;;-128.00;-1.00;-1.00;106938;1251;1012217;-67
2024/03/15 10:37:49;;;;;;;29.20;16.40;;;;;;;-128.00;-1.00;-1.00;106954;1250;1001999;-68
2024/03/15 10:40:25;;;;;;;25.70;16.30;;;;;;;-128.00;-1.00;-1.00;106797;1251;1002569;-68
2024/03/15 10:43:00;;;;;;;42.30;21.80;;;;;;;-128.00;-1.00;-1.00;106797;1251;1013506;-69
2024/03/15 10:45:27;;;;;;;30.40;18.20;;;;;;;-128.00;-1.00;-1.00;106927;1253;1012426;-69
2024/03/15 10:47:55;;;;;;;29.40;17.30;;;;;;;-128.00;-1.00;-1.00;106975;1251;1002444;-69
2024/03/15 10:50:27;;;;;;;29.80;17.30;;;;;;;-128.00;-1.00;-1.00;106973;1251;1001857;-68
2024/03/15 10:52:55;;;;;;;35.60;21.20;;;;;;;-128.00;-1.00;-1.00;107015;1250;1011815;-68
2024/03/15 10:55:25;;;;;;;41.40;26.10;;;;;;;-128.00;-1.00;-1.00;106807;1251;1012667;-69
2024/03/15 10:58:05;;;;;;;23.60;17.00;;;;;;;-128.00;-1.00;-1.00;106769;1253;1012764;-69
2024/03/15 11:00:32;;;;;;;39.60;22.00;;;;;;;-128.00;-1.00;-1.00;106978;1251;1013223;-68
2024/03/15 11:03:33;;;;;;;37.50;24.40;;;;;;;-128.00;-1.00;-1.00;106983;1251;1002135;-68
2024/03/15 11:06:01;;;;;;;40.80;28.70;;;;;;;-128.00;-1.00;-1.00;106406;1258;1011353;-68
2024/03/15 11:08:32;;;;;;;24.10;16.60;;;;;;;-128.00;-1.00;-1.00;106292;1259;1012446;-68
2024/03/15 11:11:01;;;;;;;25.30;17.30;;;;;;;-128.00;-1.00;-1.00;106199;1258;1013322;-68
2024/03/15 11:13:36;;;;;;;;;;;;;;;-128.00;-1.00;-1.00;106249;1258;1012585;-69
2024/03/15 11:16:25;;;;;;;36.10;19.90;;;;;;;-128.00;-1.00;-1.00;106311;1258;1009421;-69